createdAt,value
2019-03-24T00:01:06.103Z,80.38
2019-03-24T00:03:36.914Z,79.98
2019-03-24T00:06:07.736Z,80.52
2019-03-24T00:08:38.537Z,79.86
2019-03-24T00:11:09.477Z,80.03
2019-03-24T00:13:40.199Z,79.92
2019-03-24T00:16:11.008Z,80.14
2019-03-24T00:18:41.786Z,80.13
2019-03-24T00:21:12.200Z,79.79
2019-03-24T00:23:43.110Z,79.02
2019-03-24T00:26:14.472Z,78.64
2019-03-24T00:28:45.326Z,79.11
2019-03-24T00:31:16.222Z,79.38
2019-03-24T00:33:46.995Z,79.09
2019-03-24T00:36:18.318Z,79.56
2019-03-24T00:38:49.215Z,79.22
2019-03-24T00:41:19.985Z,78.70
2019-03-24T00:43:50.889Z,79.15
2019-03-24T00:46:22.326Z,78.48
2019-03-24T00:48:53.211Z,78.00
2019-03-24T00:51:24.072Z,78.79
2019-03-24T00:53:54.873Z,77.92
2019-03-24T00:56:25.612Z,78.28
2019-03-24T00:58:57.074Z,78.63
2019-03-24T01:01:27.894Z,78.85
2019-03-24T01:03:58.428Z,77.51
2019-03-24T01:06:29.237Z,77.20
2019-03-24T01:09:00.027Z,77.29
2019-03-24T01:11:30.607Z,78.12
2019-03-24T01:14:01.501Z,77.60
2019-03-24T01:16:32.415Z,76.87
2019-03-24T01:19:04.791Z,76.63
2019-03-24T01:21:38.321Z,76.41
2019-03-24T01:24:09.223Z,76.10
2019-03-24T01:26:40.065Z,75.70
2019-03-24T01:29:15.118Z,75.91
2019-03-24T01:31:45.931Z,75.43
2019-03-24T01:34:16.440Z,74.64
2019-03-24T01:36:47.425Z,74.22
2019-03-24T01:39:18.476Z,75.43
2019-03-24T01:41:50.817Z,74.91
2019-03-24T01:44:21.753Z,75.49
2019-03-24T01:46:52.479Z,75.84
2019-03-24T01:49:25.981Z,75.00
2019-03-24T01:51:59.587Z,75.03
2019-03-24T01:54:30.425Z,75.85
2019-03-24T01:57:01.353Z,76.07
2019-03-24T01:59:32.229Z,75.84
2019-03-24T02:02:03.105Z,76.07
2019-03-24T02:04:36.866Z,76.31
2019-03-24T02:07:07.695Z,75.76
2019-03-24T02:09:38.622Z,76.02
2019-03-24T02:12:10.916Z,76.01
2019-03-24T02:14:41.838Z,76.41
2019-03-24T02:17:13.295Z,76.91
2019-03-24T02:19:44.241Z,76.92
2019-03-24T02:22:15.171Z,76.71
2019-03-24T04:41:55.176Z,78.87
2019-03-24T04:44:25.980Z,78.47
2019-03-24T04:46:56.710Z,78.63
2019-03-24T04:49:27.495Z,78.83
2019-03-24T04:51:58.260Z,79.09
2019-03-24T04:54:29.054Z,78.81
2019-03-24T04:57:00.004Z,79.05
2019-03-24T04:59:30.944Z,79.47
2019-03-24T05:02:01.640Z,79.77
2019-03-24T05:04:32.374Z,80.02
2019-03-24T05:07:03.530Z,80.06
2019-03-24T05:09:34.546Z,80.09
2019-03-24T05:12:05.394Z,79.64
2019-03-24T05:14:36.227Z,79.79
2019-03-24T05:17:07.074Z,79.40
2019-03-24T05:19:37.890Z,79.99
2019-03-24T05:22:08.632Z,80.07
2019-03-24T05:24:39.090Z,80.02
2019-03-24T05:27:09.803Z,80.17
2019-03-24T05:29:40.519Z,80.05
2019-03-24T05:32:10.924Z,79.53
2019-03-24T05:34:41.684Z,79.63
2019-03-24T05:37:12.522Z,79.58
2019-03-24T05:39:43.267Z,79.67
2019-03-24T05:42:14.090Z,79.71
2019-03-24T05:44:44.830Z,79.34
2019-03-24T05:47:15.654Z,79.70
2019-03-24T05:49:46.753Z,79.81
2019-03-24T05:52:17.544Z,79.61
2019-03-24T05:54:48.390Z,79.10
2019-03-24T05:57:19.209Z,79.25
2019-03-24T05:59:49.638Z,78.73
2019-03-24T06:02:20.516Z,79.06
2019-03-24T06:04:51.216Z,79.11
2019-03-24T06:07:21.933Z,79.30
2019-03-24T06:09:52.780Z,79.38
2019-03-24T06:12:23.613Z,78.50
2019-03-24T06:14:54.562Z,78.67
2019-03-24T06:17:25.438Z,78.29
2019-03-24T06:19:56.244Z,78.39
2019-03-24T06:22:27.066Z,77.99
2019-03-24T06:24:57.820Z,78.21
2019-03-24T06:27:29.406Z,78.29
2019-03-24T06:29:59.787Z,78.07
2019-03-24T06:32:30.648Z,77.92
2019-03-24T06:35:01.582Z,77.53
2019-03-24T06:37:32.408Z,76.95
2019-03-24T06:40:03.269Z,77.14
2019-03-24T06:42:34.192Z,76.21
2019-03-24T06:45:06.515Z,76.24
2019-03-24T06:47:37.402Z,75.69
2019-03-24T06:50:12.038Z,75.29
2019-03-24T06:52:42.601Z,75.30
2019-03-24T06:55:13.167Z,75.35
2019-03-24T06:57:44.000Z,74.85
2019-03-24T07:00:16.132Z,74.95
2019-03-24T07:02:46.511Z,74.81
2019-03-24T07:05:17.187Z,74.18
2019-03-24T07:07:47.972Z,74.07
2019-03-24T07:10:19.116Z,73.31
2019-03-24T07:12:51.480Z,73.68
2019-03-24T07:15:22.725Z,73.06
2019-03-24T07:17:53.804Z,72.35
2019-03-24T07:20:26.242Z,72.34
2019-03-24T07:22:57.591Z,72.48
2019-03-24T07:25:29.586Z,72.50
2019-03-24T07:28:00.281Z,72.24
2019-03-24T07:30:32.302Z,72.00
2019-03-24T07:33:03.605Z,71.97
2019-03-24T07:35:35.922Z,71.06
2019-03-24T07:38:07.842Z,71.32
2019-03-24T07:40:40.224Z,71.53
2019-03-24T07:43:11.153Z,71.41
2019-03-24T07:45:41.625Z,70.98
2019-03-24T07:48:18.954Z,70.82
2019-03-24T07:50:46.423Z,70.67
2019-03-24T07:53:18.766Z,70.52
2019-03-24T07:55:49.560Z,70.13
2019-03-24T07:58:20.589Z,69.92
2019-03-24T08:00:51.409Z,70.27
2019-03-24T08:03:22.270Z,70.23
2019-03-24T08:05:54.391Z,70.24
2019-03-24T08:08:27.657Z,70.07
2019-03-24T08:10:57.743Z,70.40
2019-03-24T08:13:28.569Z,69.82
2019-03-24T08:16:02.342Z,70.44
2019-03-24T08:18:35.470Z,70.66
2019-03-24T08:21:06.406Z,70.32
2019-03-24T08:23:37.300Z,70.22
2019-03-24T08:26:10.731Z,70.21
2019-03-24T08:28:41.561Z,69.58
2019-03-24T08:31:14.811Z,69.85
2019-03-24T08:33:44.885Z,69.76
2019-03-24T08:36:15.746Z,68.66
2019-03-24T08:38:46.787Z,68.45
2019-03-24T08:41:17.607Z,67.90
2019-03-24T08:43:48.445Z,68.03
2019-03-24T08:46:19.165Z,67.86
2019-03-24T08:48:49.966Z,67.84
2019-03-24T08:51:20.961Z,67.51
2019-03-24T08:53:51.809Z,67.61
2019-03-24T08:56:22.504Z,66.96
2019-03-24T08:58:53.520Z,66.90
2019-03-24T09:01:24.423Z,66.44
2019-03-24T09:03:55.329Z,66.66
2019-03-24T09:06:26.113Z,66.86
2019-03-24T09:08:57.033Z,66.40
2019-03-24T09:11:31.461Z,67.11
2019-03-24T09:14:00.411Z,66.89
2019-03-24T09:16:31.251Z,67.15
2019-03-24T09:19:01.708Z,66.62
2019-03-24T09:21:32.639Z,66.70
2019-03-24T09:24:03.555Z,66.43
2019-03-24T09:26:34.115Z,65.38
2019-03-24T09:29:05.048Z,65.48
2019-03-24T09:31:35.544Z,66.02
2019-03-24T09:34:06.126Z,66.18
2019-03-24T09:36:36.940Z,66.20
2019-03-24T09:39:07.784Z,65.74
2019-03-24T09:41:38.721Z,65.08
2019-03-24T09:44:09.557Z,64.97
2019-03-24T09:46:40.363Z,64.65
2019-03-24T09:49:11.129Z,63.66
2019-03-24T09:51:42.097Z,64.28
2019-03-24T09:54:13.018Z,63.29
2019-03-24T09:56:43.580Z,62.94
2019-03-24T09:59:14.487Z,62.25
2019-03-24T10:01:45.426Z,60.21
2019-03-24T10:04:16.319Z,60.65
2019-03-24T10:06:47.353Z,60.22
2019-03-24T10:09:19.625Z,60.91
2019-03-24T10:11:52.318Z,60.95
2019-03-24T10:14:23.356Z,60.16
2019-03-24T10:16:55.835Z,59.92
2019-03-24T10:19:26.903Z,59.76
2019-03-24T10:21:59.688Z,59.84
2019-03-24T10:24:30.511Z,60.25
2019-03-24T10:27:01.394Z,60.29
2019-03-24T10:29:32.319Z,58.87
2019-03-24T10:32:02.934Z,58.85
2019-03-24T10:34:33.802Z,58.57
2019-03-24T10:37:04.673Z,58.14
2019-03-24T10:39:35.516Z,57.98
2019-03-24T10:42:06.365Z,57.48
2019-03-24T10:44:37.224Z,57.63
2019-03-24T10:47:08.147Z,56.29
2019-03-24T10:49:39.585Z,54.73
2019-03-24T10:52:10.619Z,55.13
2019-03-24T10:54:41.472Z,53.44
2019-03-24T10:57:12.204Z,53.48
2019-03-24T10:59:43.059Z,54.10
2019-03-24T11:02:13.682Z,52.44
2019-03-24T11:04:44.535Z,52.27
2019-03-24T11:07:15.365Z,53.38
2019-03-24T11:09:46.308Z,54.19
2019-03-24T11:12:21.332Z,49.24
2019-03-24T11:14:52.190Z,49.80
2019-03-24T11:17:23.050Z,50.26
2019-03-24T11:19:54.151Z,48.88
2019-03-24T11:22:24.980Z,47.90
2019-03-24T11:24:55.817Z,48.21
2019-03-24T11:27:26.667Z,49.17
2019-03-24T11:30:00.333Z,48.82
2019-03-24T11:32:31.311Z,49.85
2019-03-24T11:35:02.341Z,49.44
2019-03-24T11:37:33.174Z,48.71
2019-03-24T11:40:05.491Z,48.20
2019-03-24T11:42:36.432Z,48.51
2019-03-24T11:45:08.173Z,47.66
2019-03-24T11:47:39.056Z,48.36
2019-03-24T11:50:10.579Z,47.09
2019-03-24T11:52:41.809Z,47.87
2019-03-24T11:55:13.393Z,46.95
2019-03-24T11:57:44.366Z,47.69
2019-03-24T12:00:17.592Z,47.17
2019-03-24T12:02:48.400Z,47.80
2019-03-24T12:05:19.227Z,46.82
2019-03-24T12:07:50.211Z,47.98
2019-03-24T12:10:20.906Z,48.93
2019-03-24T12:12:51.377Z,48.60
2019-03-24T12:15:22.342Z,47.63
2019-03-24T12:17:53.449Z,47.83
2019-03-24T12:20:25.941Z,47.64
2019-03-24T12:22:56.751Z,47.74
2019-03-24T12:25:27.557Z,47.68
2019-03-24T12:28:00.105Z,47.44
2019-03-24T12:30:30.865Z,46.88
2019-03-24T12:33:03.254Z,44.15
2019-03-24T12:35:34.096Z,45.65
2019-03-24T12:38:05.218Z,46.02
2019-03-24T12:40:36.084Z,45.27
2019-03-24T12:43:06.932Z,45.94
2019-03-24T12:45:38.429Z,43.41
2019-03-24T12:48:08.954Z,43.14
2019-03-24T12:50:42.118Z,44.49
2019-03-24T12:53:14.121Z,44.25
2019-03-24T12:55:46.431Z,44.30
2019-03-24T12:58:19.986Z,43.86
2019-03-24T13:00:53.487Z,43.47
2019-03-24T13:03:24.341Z,43.23
2019-03-24T13:05:55.099Z,41.99
2019-03-24T13:08:25.940Z,42.53
2019-03-24T13:10:56.768Z,42.30
2019-03-24T13:13:27.238Z,42.78
2019-03-24T13:15:58.043Z,43.81
2019-03-24T13:18:28.999Z,45.16
2019-03-24T13:20:59.906Z,44.69
2019-03-24T13:23:30.623Z,42.81
2019-03-24T13:26:01.472Z,43.17
2019-03-24T13:28:32.450Z,43.80
2019-03-24T13:31:04.786Z,42.97
2019-03-24T13:33:35.629Z,43.16
2019-03-24T13:36:08.489Z,43.17
2019-03-24T13:38:42.399Z,42.74
2019-03-24T13:41:13.133Z,40.73
2019-03-24T13:43:43.980Z,41.43
2019-03-24T13:46:15.449Z,41.41
2019-03-24T13:48:46.294Z,41.72
2019-03-24T13:51:16.740Z,42.60
2019-03-24T13:53:47.139Z,42.84
2019-03-24T13:56:18.055Z,43.13
2019-03-24T13:58:48.815Z,43.90
2019-03-24T14:01:20.279Z,44.26
2019-03-24T14:03:52.910Z,43.75
2019-03-24T14:06:24.181Z,43.50
2019-03-24T14:08:55.135Z,44.05
2019-03-24T14:11:25.770Z,44.73
2019-03-24T14:13:56.621Z,44.69
2019-03-24T14:16:27.523Z,45.84
2019-03-24T14:18:58.260Z,47.13
2019-03-24T14:21:28.977Z,47.51
2019-03-24T14:23:59.795Z,47.94
2019-03-24T14:26:30.651Z,48.42
2019-03-24T14:29:01.109Z,48.86
2019-03-24T14:31:32.017Z,49.23
2019-03-24T14:34:02.856Z,49.37
2019-03-24T14:36:33.707Z,49.55
2019-03-24T14:39:05.570Z,49.63
2019-03-24T14:41:36.573Z,50.19
2019-03-24T14:44:07.451Z,50.13
2019-03-24T14:46:38.370Z,51.30
2019-03-24T14:49:09.065Z,50.01
2019-03-24T14:51:39.881Z,50.81
2019-03-24T14:54:10.689Z,50.23
2019-03-24T14:56:41.428Z,49.68
2019-03-24T14:59:12.369Z,50.87
2019-03-24T15:01:43.067Z,50.51
2019-03-24T15:04:17.026Z,49.92
2019-03-24T15:06:47.866Z,49.73
2019-03-24T15:09:18.938Z,50.72
2019-03-24T15:11:49.510Z,50.44
2019-03-24T15:14:20.383Z,50.68
2019-03-24T15:16:51.181Z,50.78
2019-03-24T15:19:22.170Z,51.39
2019-03-24T15:21:52.948Z,50.75
2019-03-24T15:24:23.762Z,50.50
2019-03-24T15:26:56.179Z,50.70
2019-03-24T15:29:26.989Z,51.52
2019-03-24T15:31:57.831Z,51.65
2019-03-24T15:34:28.688Z,52.00
2019-03-24T15:36:59.671Z,51.71
2019-03-24T15:39:30.477Z,50.82
2019-03-24T15:42:01.307Z,50.96
2019-03-24T15:44:32.146Z,51.06
2019-03-24T15:47:03.089Z,50.84
2019-03-24T15:49:33.794Z,51.15
2019-03-24T15:52:04.203Z,51.64
2019-03-24T15:54:34.962Z,51.12
2019-03-24T15:57:05.890Z,52.10
2019-03-24T15:59:37.670Z,51.79
2019-03-24T16:02:09.409Z,51.11
2019-03-24T16:04:40.314Z,51.20
2019-03-24T16:07:11.200Z,50.72
2019-03-24T16:09:42.183Z,51.11
2019-03-24T16:12:14.722Z,51.95
2019-03-24T16:14:45.557Z,52.02
2019-03-24T16:17:17.937Z,53.00
2019-03-24T16:19:50.286Z,53.21
2019-03-24T16:22:21.153Z,52.81
2019-03-24T16:24:54.395Z,52.31
2019-03-24T16:27:25.185Z,53.08
2019-03-24T16:29:56.111Z,52.69
2019-03-24T16:32:28.475Z,53.36
2019-03-24T16:34:59.208Z,53.01
2019-03-24T16:37:29.935Z,52.67
2019-03-24T16:40:02.409Z,53.28
2019-03-24T16:42:33.256Z,52.53
2019-03-24T16:45:05.123Z,52.17
2019-03-24T16:47:35.872Z,52.27
2019-03-24T16:50:07.915Z,52.13
2019-03-24T16:52:38.872Z,51.69
2019-03-24T16:55:33.222Z,52.26
2019-03-24T16:58:10.543Z,52.60
2019-03-24T17:00:41.388Z,53.08
2019-03-24T17:03:12.229Z,53.07
2019-03-24T17:05:43.046Z,53.68
2019-03-24T17:08:13.889Z,54.00
2019-03-24T17:10:46.589Z,53.02
2019-03-24T17:13:17.370Z,53.41
2019-03-24T17:15:47.847Z,53.52
2019-03-24T17:18:18.662Z,52.78
2019-03-24T17:20:49.190Z,52.97
2019-03-24T17:23:19.958Z,53.34
2019-03-24T17:25:50.793Z,53.70
2019-03-24T17:28:21.712Z,53.25
2019-03-24T17:30:52.512Z,53.19
2019-03-24T17:33:23.486Z,53.57
2019-03-24T17:35:54.310Z,53.47
2019-03-24T17:38:25.163Z,53.65
2019-03-24T17:40:56.012Z,54.18
2019-03-24T17:43:27.002Z,54.43
2019-03-24T17:45:57.936Z,54.48
2019-03-24T17:48:28.675Z,54.37
2019-03-24T17:50:59.442Z,54.93
2019-03-24T17:53:30.343Z,55.50
2019-03-24T17:56:04.474Z,55.22
2019-03-24T17:58:35.333Z,54.95
2019-03-24T18:01:09.353Z,55.18
2019-03-24T18:03:40.199Z,55.72
2019-03-24T18:06:12.750Z,55.39
2019-03-24T18:08:43.612Z,55.42
2019-03-24T18:11:14.436Z,55.81
2019-03-24T18:13:45.260Z,55.99
2019-03-24T18:16:17.402Z,56.08
2019-03-24T18:18:48.376Z,56.51
2019-03-24T18:21:27.332Z,56.77
2019-03-24T18:23:59.695Z,57.34
2019-03-24T18:26:32.951Z,56.65
2019-03-24T18:29:06.496Z,56.87
2019-03-24T18:31:39.859Z,56.70
2019-03-24T18:34:10.755Z,56.85
2019-03-24T18:36:41.653Z,56.81
2019-03-24T18:39:12.182Z,56.81
2019-03-24T18:41:43.110Z,57.35
2019-03-24T18:44:13.963Z,57.43
2019-03-24T18:46:44.576Z,57.58
2019-03-24T18:49:15.320Z,57.80
2019-03-24T18:51:46.377Z,57.74
2019-03-24T18:54:17.176Z,58.13
2019-03-24T18:56:48.092Z,58.31
2019-03-24T18:59:20.635Z,58.60
2019-03-24T19:01:51.546Z,58.79
2019-03-24T19:04:23.813Z,58.51
2019-03-24T19:06:54.651Z,58.74
2019-03-24T19:09:25.507Z,59.16
2019-03-24T19:11:56.519Z,59.21
2019-03-24T19:14:27.477Z,59.22
2019-03-24T19:16:58.940Z,59.45
2019-03-24T19:19:29.925Z,59.48
2019-03-24T19:22:00.861Z,59.76
2019-03-24T19:24:31.722Z,59.67
2019-03-24T19:27:02.889Z,59.74
2019-03-24T19:29:33.718Z,59.63
2019-03-24T19:32:06.174Z,59.99
2019-03-24T19:34:38.491Z,60.57
2019-03-24T19:37:09.401Z,60.87
2019-03-24T19:39:41.715Z,60.79
2019-03-24T19:42:18.614Z,61.20
2019-03-24T19:44:47.911Z,61.31
2019-03-24T19:47:18.929Z,61.68
2019-03-24T19:49:56.165Z,61.84
2019-03-24T19:52:28.722Z,62.16
2019-03-24T19:55:01.130Z,61.94
2019-03-24T19:57:32.072Z,61.79
2019-03-24T20:00:06.170Z,61.51
2019-03-24T20:02:37.926Z,61.47
2019-03-24T20:05:08.863Z,61.83
2019-03-24T20:07:47.579Z,61.13
2019-03-24T20:10:12.469Z,61.34
2019-03-24T20:12:46.311Z,61.20
2019-03-24T20:15:17.509Z,61.49
2019-03-24T20:17:48.379Z,61.60
2019-03-24T20:20:18.972Z,61.68
2019-03-24T20:22:56.515Z,62.00
2019-03-24T20:25:25.556Z,62.33
2019-03-24T20:27:56.771Z,62.57
2019-03-24T20:30:27.696Z,62.19
2019-03-24T20:32:58.640Z,62.43
2019-03-24T20:35:34.391Z,62.04
2019-03-24T20:38:06.643Z,61.86
2019-03-24T20:40:37.495Z,62.23
2019-03-24T20:43:08.396Z,62.61
2019-03-24T20:45:39.312Z,62.79
2019-03-24T20:48:10.159Z,62.45
2019-03-24T20:50:41.015Z,62.36
2019-03-24T20:53:18.155Z,62.65
2019-03-24T20:55:46.983Z,62.78
2019-03-24T20:58:17.991Z,62.94
2019-03-24T21:00:50.624Z,62.80
2019-03-24T21:03:21.480Z,62.76
2019-03-24T21:05:52.043Z,62.52
2019-03-24T21:08:23.118Z,62.92
2019-03-24T21:10:54.015Z,62.22
2019-03-24T21:13:24.925Z,62.51
2019-03-24T21:15:55.829Z,62.10
2019-03-24T21:18:26.911Z,62.55
2019-03-24T21:20:57.703Z,62.36
2019-03-24T21:23:29.770Z,62.54
2019-03-24T21:26:03.804Z,62.38
2019-03-24T21:28:34.644Z,62.62
2019-03-24T21:31:05.605Z,62.45
2019-03-24T21:33:36.528Z,62.77
2019-03-24T21:36:08.661Z,63.01
2019-03-24T21:38:39.675Z,63.16
2019-03-24T21:41:10.462Z,63.27
2019-03-24T21:43:42.365Z,63.22
2019-03-24T21:46:13.204Z,63.57
2019-03-24T21:48:44.207Z,63.61
2019-03-24T21:51:15.147Z,63.64
2019-03-24T21:53:45.985Z,64.04
2019-03-24T21:56:25.566Z,63.94
2019-03-24T21:58:56.445Z,64.45
2019-03-24T22:01:27.314Z,64.21
2019-03-24T22:04:00.174Z,64.51
2019-03-24T22:06:31.075Z,64.35
2019-03-24T22:09:01.914Z,64.51
2019-03-24T22:11:36.872Z,64.54
2019-03-24T22:14:09.355Z,64.64
2019-03-24T22:16:41.485Z,64.70
2019-03-24T22:19:14.068Z,64.77
2019-03-24T22:21:46.357Z,64.86
2019-03-24T22:24:19.656Z,64.73
2019-03-24T22:26:50.501Z,64.90
2019-03-24T22:29:21.435Z,65.06
2019-03-24T22:31:52.443Z,64.71
2019-03-24T22:34:24.461Z,65.09
2019-03-24T22:36:57.175Z,64.85
2019-03-24T22:39:27.974Z,65.09
2019-03-24T22:41:58.806Z,65.00
2019-03-24T22:44:29.553Z,65.01
2019-03-24T22:47:00.383Z,64.90
2019-03-24T22:49:31.198Z,65.06
2019-03-24T22:52:07.128Z,65.24
2019-03-24T22:54:35.155Z,65.11
2019-03-24T22:57:06.584Z,65.27
2019-03-24T22:59:37.431Z,65.39
2019-03-24T23:02:08.371Z,65.45
2019-03-24T23:04:39.321Z,65.61
2019-03-24T23:07:10.407Z,65.73
2019-03-24T23:09:40.818Z,65.83
2019-03-24T23:12:11.826Z,65.69
2019-03-24T23:14:42.552Z,65.67
2019-03-24T23:17:13.392Z,65.67
2019-03-24T23:19:43.915Z,65.61
2019-03-24T23:22:14.753Z,65.46
2019-03-24T23:24:45.506Z,65.64
2019-03-24T23:27:16.397Z,65.69
2019-03-24T23:29:47.251Z,65.61
2019-03-24T23:32:18.104Z,65.39
2019-03-24T23:34:48.845Z,65.70
2019-03-24T23:37:19.685Z,65.95
2019-03-24T23:39:50.593Z,65.91
2019-03-24T23:42:21.399Z,65.99
2019-03-24T23:44:51.799Z,65.90
2019-03-24T23:47:22.703Z,65.44
2019-03-24T23:49:53.599Z,65.34
2019-03-24T23:52:24.731Z,65.43
2019-03-24T23:54:55.615Z,65.02
2019-03-24T23:57:26.131Z,65.24
2019-03-24T23:59:56.972Z,65.39
